Bow Heron — DYTN — position and weather

sailwx.info

Track history (hours):
 
Tides and Currents Weather Stations Pressure Air Temp Water Temp Dewpoint Dewpoint Depression Visibility Wind Speed Wind Dir Waves Ship Positions

Bow Heron

Last reported at 2017-Jan-15 09:25 UTC. Time now 2017-Jan-21 23:44 UTC.
Position N 31°06' E 122°19'.

Length 174 m; draft 7.7 m.

Type: Ship (hazmat cat A). MMSI: 548779000.

Date/timePositionNaut miles runAvg speedWind from/ knotsBaromVisibWave heightAir tempDewpointWater temp
2017-Jan-15 09:25N 31°06' E 122°19'1214.5
2017-Jan-15 08:34N 31°13' E 122°07'1211.5
2017-Jan-15 07:33N 31°16' E 121°54'1211.6
2017-Jan-15 06:33N 31°20' E 121°41'8 8.2
2017-Jan-15 05:33N 31°24' E 121°33'7 6.7
2017-Jan-15 04:33N 31°28' E 121°27'1111.0
2017-Jan-15 03:33N 31°36' E 121°17'1312.4
2017-Jan-15 02:33N 31°44' E 121°06'38 1.7
2017-Jan-14 04:25N 32°02' E 120°27'3 3.6
2017-Jan-14 03:30N 31°58' E 120°27'0 0.0
2017-Jan-13 23:30N 31°58' E 120°27'0 0.0
2017-Jan-13 22:30N 31°58' E 120°27'0 0.0
2017-Jan-13 21:30N 31°58' E 120°27'0 0.0
2017-Jan-13 20:24N 31°58' E 120°27'0 0.0
2017-Jan-13 19:30N 31°58' E 120°27'0 0.0
2017-Jan-13 18:30N 31°58' E 120°27'0 0.0
2017-Jan-13 17:30N 31°58' E 120°27'0 0.0
2017-Jan-13 16:30N 31°58' E 120°27'0 0.0
2017-Jan-13 15:30N 31°58' E 120°27'0 0.0
2017-Jan-13 14:30N 31°58' E 120°27'0 0.0
2017-Jan-13 13:30N 31°58' E 120°27'0 0.0
2017-Jan-13 12:30N 31°58' E 120°27'0 0.0
2017-Jan-13 11:24N 31°58' E 120°27'0 0.0
2017-Jan-13 10:30N 31°58' E 120°27'0 0.0
2017-Jan-13 09:33N 31°58' E 120°27'0 0.0
2017-Jan-13 08:30N 31°58' E 120°27'0 0.0
2017-Jan-13 07:30N 31°58' E 120°27'0 0.0
2017-Jan-13 06:33N 31°58' E 120°27'36 6.0
2017-Jan-13 00:33N 31°45' E 121°06'1111.3
2017-Jan-12 23:33N 31°37' E 121°16'5 4.6
2017-Jan-12 22:32N 31°34' E 121°20'0 0.0
2017-Jan-12 21:26N 31°34' E 121°20'0 0.0
2017-Jan-12 20:32N 31°34' E 121°20'0 0.0
2017-Jan-12 19:32N 31°34' E 121°20'0 0.2
2017-Jan-12 18:32N 31°34' E 121°20'0 0.1
2017-Jan-12 17:32N 31°34' E 121°20'0 0.0
2017-Jan-12 16:32N 31°34' E 121°20'0 0.1
2017-Jan-12 15:32N 31°34' E 121°20'0 0.2
2017-Jan-12 14:32N 31°34' E 121°20'0 0.0
2017-Jan-12 13:32N 31°34' E 121°20'0 0.0
2017-Jan-12 12:26N 31°34' E 121°20'0 0.0
2017-Jan-12 11:32N 31°34' E 121°20'0 0.0
2017-Jan-12 10:32N 31°34' E 121°20'0 0.0
2017-Jan-12 09:29N 31°34' E 121°20'1 0.9
2017-Jan-12 08:33N 31°33' E 121°20'1111.1
2017-Jan-12 07:33N 31°26' E 121°30'8 7.6
2017-Jan-12 06:33N 31°22' E 121°38'10 9.6
2017-Jan-12 05:33N 31°18' E 121°48'8 8.1
2017-Jan-12 04:33N 31°15' E 121°57'8 8.2
2017-Jan-12 03:33N 31°14' E 122°06'8 7.8
2017-Jan-12 02:33N 31°09' E 122°13'  
Track history (hours):
 
Tides and Currents Weather Stations Pressure Air Temp Water Temp Dewpoint Dewpoint Depression Visibility Wind Speed Wind Dir Waves Ship Positions

Bow Heron

Last reported at 2017-Jan-15 09:25 UTC. Time now 2017-Jan-21 23:44 UTC.
Position N 31°06' E 122°19'.

Length 174 m; draft 7.7 m.

Type: Ship (hazmat cat A). MMSI: 548779000.

Date/timePositionNaut miles runAvg speedWind from/ knotsBaromVisibWave heightAir tempDewpointWater temp
2017-Jan-15 09:25N 31°06' E 122°19'1214.5
2017-Jan-15 08:34N 31°13' E 122°07'1211.5
2017-Jan-15 07:33N 31°16' E 121°54'1211.6
2017-Jan-15 06:33N 31°20' E 121°41'8 8.2
2017-Jan-15 05:33N 31°24' E 121°33'7 6.7
2017-Jan-15 04:33N 31°28' E 121°27'1111.0
2017-Jan-15 03:33N 31°36' E 121°17'1312.4
2017-Jan-15 02:33N 31°44' E 121°06'38 1.7
2017-Jan-14 04:25N 32°02' E 120°27'3 3.6
2017-Jan-14 03:30N 31°58' E 120°27'0 0.0
2017-Jan-13 23:30N 31°58' E 120°27'0 0.0
2017-Jan-13 22:30N 31°58' E 120°27'0 0.0
2017-Jan-13 21:30N 31°58' E 120°27'0 0.0
2017-Jan-13 20:24N 31°58' E 120°27'0 0.0
2017-Jan-13 19:30N 31°58' E 120°27'0 0.0
2017-Jan-13 18:30N 31°58' E 120°27'0 0.0
2017-Jan-13 17:30N 31°58' E 120°27'0 0.0
2017-Jan-13 16:30N 31°58' E 120°27'0 0.0
2017-Jan-13 15:30N 31°58' E 120°27'0 0.0
2017-Jan-13 14:30N 31°58' E 120°27'0 0.0
2017-Jan-13 13:30N 31°58' E 120°27'0 0.0
2017-Jan-13 12:30N 31°58' E 120°27'0 0.0
2017-Jan-13 11:24N 31°58' E 120°27'0 0.0
2017-Jan-13 10:30N 31°58' E 120°27'0 0.0
2017-Jan-13 09:33N 31°58' E 120°27'0 0.0
2017-Jan-13 08:30N 31°58' E 120°27'0 0.0
2017-Jan-13 07:30N 31°58' E 120°27'0 0.0
2017-Jan-13 06:33N 31°58' E 120°27'36 6.0
2017-Jan-13 00:33N 31°45' E 121°06'1111.3
2017-Jan-12 23:33N 31°37' E 121°16'5 4.6
2017-Jan-12 22:32N 31°34' E 121°20'0 0.0
2017-Jan-12 21:26N 31°34' E 121°20'0 0.0
2017-Jan-12 20:32N 31°34' E 121°20'0 0.0
2017-Jan-12 19:32N 31°34' E 121°20'0 0.2
2017-Jan-12 18:32N 31°34' E 121°20'0 0.1
2017-Jan-12 17:32N 31°34' E 121°20'0 0.0
2017-Jan-12 16:32N 31°34' E 121°20'0 0.1
2017-Jan-12 15:32N 31°34' E 121°20'0 0.2
2017-Jan-12 14:32N 31°34' E 121°20'0 0.0
2017-Jan-12 13:32N 31°34' E 121°20'0 0.0
2017-Jan-12 12:26N 31°34' E 121°20'0 0.0
2017-Jan-12 11:32N 31°34' E 121°20'0 0.0
2017-Jan-12 10:32N 31°34' E 121°20'0 0.0
2017-Jan-12 09:29N 31°34' E 121°20'1 0.9
2017-Jan-12 08:33N 31°33' E 121°20'1111.1
2017-Jan-12 07:33N 31°26' E 121°30'8 7.6
2017-Jan-12 06:33N 31°22' E 121°38'10 9.6
2017-Jan-12 05:33N 31°18' E 121°48'8 8.1
2017-Jan-12 04:33N 31°15' E 121°57'8 8.2
2017-Jan-12 03:33N 31°14' E 122°06'8 7.8
2017-Jan-12 02:33N 31°09' E 122°13'  

Dump ship's entire track history